Time;durP1;ratioP1;P1;durP2;ratioP2;P2;SDS_P1;SDS_P2;PMS_P1;PMS_P2;Temp;Humidity;BMP_temperature;BMP_pressure;BME280_temperature;BME280_humidity;BME280_pressure;Samples;Min_cycle;Max_cycle;Signal;HPM_P1;HPM_P2
2022/10/10 00:00:09;;;;;;;;;;;;;;;3.13;100.00;101446.00;3057507;19;19923;-51
2022/10/10 00:01:14;;;;;;;;;;;;;;;3.14;100.00;101445.06;3056899;19;20566;-53
2022/10/10 00:02:15;;;;;;;;;;;;;;;3.15;100.00;101446.81;3057419;19;19988;-53
2022/10/10 00:03:20;;;;;;;;;;;;;;;3.18;100.00;101446.75;3056770;19;19943;-53
2022/10/10 00:04:22;;;;;;;;;;;;;;;3.17;100.00;101449.44;3057418;19;19929;-51
2022/10/10 00:05:27;;;;;;;;;;;;;;;3.16;100.00;101448.56;3056045;19;19978;-52
2022/10/10 00:06:28;;;;;;;;;;;;;;;3.15;100.00;101446.81;3057658;19;19923;-52
2022/10/10 00:07:36;;;;;;;;;;;;;;;3.14;100.00;101449.50;3057425;19;19918;-54
2022/10/10 00:08:38;;;;;;;;;;;;;;;3.14;100.00;101442.44;3057505;19;19971;-55
2022/10/10 00:09:43;;;;;;;;;;;;;;;3.13;100.00;101448.63;3057326;19;19985;-53
2022/10/10 00:10:44;;;;;;;;;;;;;;;3.11;100.00;101445.13;3057590;19;19951;-54
2022/10/10 00:11:49;;;;;;;;;;;;;;;3.10;100.00;101438.13;3056674;19;19927;-54
2022/10/10 00:12:51;;;;;;;;;;;;;;;3.08;100.00;101439.91;3057294;19;19919;-53
2022/10/10 00:13:56;;;;;;;;;;;;;;;3.07;100.00;101443.44;3056810;19;19930;-54
2022/10/10 00:14:58;;;;;;;;;;;;;;;3.07;100.00;101439.91;3057318;19;20015;-54
2022/10/10 00:16:02;;;;;;;;;;;;;;;3.05;100.00;101442.56;3056981;19;19935;-56
2022/10/10 00:17:04;;;;;;;;;;;;;;;3.05;100.00;101445.22;3057321;19;19919;-54
2022/10/10 00:18:09;;;;;;;;;;;;;;;3.03;100.00;101444.34;3056906;19;19942;-54
2022/10/10 00:19:11;;;;;;;;;;;;;;;3.03;100.00;101436.44;3057266;19;19915;-52
2022/10/10 00:20:16;;;;;;;;;;;;;;;3.01;100.00;101438.28;3056815;19;20534;-54
2022/10/10 00:21:18;;;;;;;;;;;;;;;3.01;100.00;101432.13;3057022;19;19927;-53
2022/10/10 00:22:22;;;;;;;;;;;;;;;2.99;100.00;101445.31;3056892;19;19982;-52
2022/10/10 00:23:24;;;;;;;;;;;;;;;2.99;100.00;101440.06;3057221;19;19954;-53
2022/10/10 00:24:28;;;;;;;;;;;;;;;2.98;100.00;101437.44;3056016;19;19923;-52
2022/10/10 00:25:30;;;;;;;;;;;;;;;2.99;100.00;101440.06;3056966;19;20306;-53
2022/10/10 00:26:34;;;;;;;;;;;;;;;2.99;100.00;101444.44;3056839;19;19918;-53
2022/10/10 00:27:36;;;;;;;;;;;;;;;2.97;100.00;101441.84;3056840;19;19922;-53
2022/10/10 00:28:41;;;;;;;;;;;;;;;2.96;100.00;101434.81;3056752;19;20338;-53
2022/10/10 00:29:43;;;;;;;;;;;;;;;2.94;100.00;101441.88;3057272;19;20321;-52
2022/10/10 00:30:47;;;;;;;;;;;;;;;2.94;100.00;101449.78;3056684;19;20252;-54
2022/10/10 00:31:49;;;;;;;;;;;;;;;2.91;100.00;101439.28;3056961;19;19943;-53
2022/10/10 00:32:53;;;;;;;;;;;;;;;2.90;100.00;101434.88;3056939;19;20453;-54
2022/10/10 00:33:55;;;;;;;;;;;;;;;2.90;100.00;101440.16;3057069;19;19954;-52
2022/10/10 00:35:00;;;;;;;;;;;;;;;2.89;100.00;101444.59;3056798;19;20649;-53
2022/10/10 00:36:02;;;;;;;;;;;;;;;2.88;100.00;101434.06;3056005;19;19922;-52
2022/10/10 00:37:07;;;;;;;;;;;;;;;2.89;100.00;101433.19;3056282;19;19919;-54
2022/10/10 00:38:08;;;;;;;;;;;;;;;2.87;100.00;101434.97;3056163;19;19927;-54
2022/10/10 00:39:13;;;;;;;;;;;;;;;2.88;100.00;101436.72;3056562;19;19947;-51
2022/10/10 00:40:15;;;;;;;;;;;;;;;2.87;100.00;101434.97;3056999;19;20220;-51
2022/10/10 00:41:21;;;;;;;;;;;;;;;2.85;100.00;101431.47;3056412;19;19943;-53
2022/10/10 00:42:23;;;;;;;;;;;;;;;2.82;100.00;101432.38;3056838;19;19919;-53
2022/10/10 00:43:28;;;;;;;;;;;;;;;2.81;100.00;101435.91;3056491;19;19922;-50
2022/10/10 00:44:29;;;;;;;;;;;;;;;2.81;100.00;101430.63;3056525;19;19958;-50
2022/10/10 00:45:38;;;;;;;;;;;;;;;2.81;100.00;101437.66;3055333;19;19919;-54
2022/10/10 00:46:40;;;;;;;;;;;;;;;2.80;100.00;101438.56;3055529;19;19914;-52
2022/10/10 00:47:44;;;;;;;;;;;;;;;2.81;100.00;101433.28;3054502;19;20326;-53
2022/10/10 00:48:46;;;;;;;;;;;;;;;2.80;100.00;101436.81;3056455;19;19922;-54
2022/10/10 00:49:51;;;;;;;;;;;;;;;2.78;100.00;101435.06;3056750;19;19936;-53
2022/10/10 00:51:09;;;;;;;;;;;;;;;2.78;100.00;101429.81;3056080;19;19918;-53
2022/10/10 00:52:13;;;;;;;;;;;;;;;2.78;100.00;101430.69;3056285;19;20250;-53
2022/10/10 00:53:17;;;;;;;;;;;;;;;2.78;100.00;101432.44;3055667;19;19918;-52
2022/10/10 00:54:21;;;;;;;;;;;;;;;2.78;100.00;101435.06;3056031;19;19919;-52
2022/10/10 00:55:23;;;;;;;;;;;;;;;2.77;100.00;101438.63;3055814;19;19931;-54
2022/10/10 00:56:31;;;;;;;;;;;;;;;2.77;100.00;101428.09;3056028;19;19918;-52
2022/10/10 00:57:33;;;;;;;;;;;;;;;2.76;100.00;101434.25;3055420;19;19927;-52
2022/10/10 00:58:37;;;;;;;;;;;;;;;2.75;100.00;101435.13;3056199;19;19931;-54
2022/10/10 00:59:40;;;;;;;;;;;;;;;2.75;100.00;101424.59;3055625;19;19923;-50
2022/10/10 01:00:44;;;;;;;;;;;;;;;2.75;100.00;101429.88;3055956;19;19918;-51
2022/10/10 01:01:46;;;;;;;;;;;;;;;2.74;100.00;101429.00;3055481;19;19961;-49
2022/10/10 01:02:51;;;;;;;;;;;;;;;2.74;100.00;101430.75;3056785;19;20486;-50
2022/10/10 01:03:57;;;;;;;;;;;;;;;2.74;100.00;101423.72;3056398;19;19919;-53
2022/10/10 01:05:01;;;;;;;;;;;;;;;2.74;100.00;101433.41;3055905;19;19954;-50
2022/10/10 01:06:06;;;;;;;;;;;;;;;2.74;100.00;101428.13;3056551;19;19978;-55
2022/10/10 01:07:18;;;;;;;;;;;;;;;2.71;100.00;101436.06;3056337;19;19967;-53
2022/10/10 01:08:22;;;;;;;;;;;;;;;2.71;100.00;101433.44;3055412;19;19919;-51
2022/10/10 01:09:24;;;;;;;;;;;;;;;2.68;100.00;101436.09;3055747;19;19930;-51
2022/10/10 01:10:29;;;;;;;;;;;;;;;2.68;100.00;101438.75;3055407;19;19919;-51
2022/10/10 01:11:30;;;;;;;;;;;;;;;2.67;100.00;101437.88;3055347;19;20515;-50
2022/10/10 01:12:35;;;;;;;;;;;;;;;2.67;100.00;101447.53;3055929;19;19955;-54
2022/10/10 01:13:49;;;;;;;;;;;;;;;2.65;100.00;101439.69;3056428;19;20262;-52
2022/10/10 01:14:57;;;;;;;;;;;;;;;2.65;100.00;101444.06;3056569;19;19923;-53
2022/10/10 01:16:00;;;;;;;;;;;;;;;2.64;100.00;101444.97;3056349;19;19918;-51
2022/10/10 01:17:28;;;;;;;;;;;;;;;2.65;100.00;101449.34;3055662;19;19911;-55
2022/10/10 01:18:51;;;;;;;;;;;;;;;2.62;100.00;101444.09;3054785;19;20334;-52
2022/10/10 01:20:11;;;;;;;;;;;;;;;2.61;100.00;101445.00;3056230;19;20303;-51
2022/10/10 01:21:21;;;;;;;;;;;;;;;2.59;100.00;101433.59;3056470;19;19923;-51
2022/10/10 01:22:27;;;;;;;;;;;;;;;2.58;100.00;101442.41;3055145;19;20375;-54
2022/10/10 01:23:35;;;;;;;;;;;;;;;2.56;100.00;101444.19;3055774;19;19926;-55
2022/10/10 01:24:39;;;;;;;;;;;;;;;2.56;100.00;101438.91;3055055;19;19926;-53
2022/10/10 01:26:03;;;;;;;;;;;;;;;2.56;100.00;101442.41;3056351;19;20015;-51
2022/10/10 01:27:16;;;;;;;;;;;;;;;2.57;100.00;101435.38;3056007;19;19926;-50
2022/10/10 01:28:30;;;;;;;;;;;;;;;2.61;100.00;101437.09;3056595;19;19947;-52
2022/10/10 01:29:34;;;;;;;;;;;;;;;2.68;100.00;101433.47;3055352;19;19919;-50
2022/10/10 01:30:38;;;;;;;;;;;;;;;2.73;100.00;101436.91;3055382;19;19932;-52
2022/10/10 01:31:41;;;;;;;;;;;;;;;2.77;100.00;101436.88;3056331;19;19915;-53
2022/10/10 01:32:52;;;;;;;;;;;;;;;2.83;100.00;101430.63;3055446;19;20042;-52
2022/10/10 01:33:57;;;;;;;;;;;;;;;2.88;100.00;101428.81;3055373;19;19922;-53
2022/10/10 01:35:08;;;;;;;;;;;;;;;2.93;100.00;101419.03;3055290;19;19919;-51
2022/10/10 01:36:13;;;;;;;;;;;;;;;2.95;100.00;101422.53;3002725;19;20648;-51
2022/10/10 01:37:21;;;;;;;;;;;;;;;2.96;100.00;101413.72;3054239;19;19932;-53
2022/10/10 01:38:29;;;;;;;;;;;;;;;2.98;100.00;101421.63;3053774;19;19923;-51
2022/10/10 01:39:37;;;;;;;;;;;;;;;2.98;100.00;101417.22;3054471;19;20473;-53
2022/10/10 01:40:39;;;;;;;;;;;;;;;2.97;100.00;101412.84;3053988;19;20343;-50
2022/10/10 01:41:53;;;;;;;;;;;;;;;2.97;100.00;101420.75;3053879;19;20621;-52
2022/10/10 01:42:55;;;;;;;;;;;;;;;2.99;100.00;101413.69;3054178;19;19978;-52
2022/10/10 01:44:00;;;;;;;;;;;;;;;2.99;100.00;101418.97;3054352;19;19944;-53
2022/10/10 01:45:02;;;;;;;;;;;;;;;2.99;100.00;101421.59;3054035;19;19919;-53
2022/10/10 01:46:18;;;;;;;;;;;;;;;2.99;100.00;101418.09;3054298;19;20048;-52
2022/10/10 01:47:20;;;;;;;;;;;;;;;2.98;100.00;101427.75;3054247;19;20339;-51
2022/10/10 01:48:26;;;;;;;;;;;;;;;2.98;100.00;101421.63;3054452;19;19919;-52
2022/10/10 01:49:29;;;;;;;;;;;;;;;2.96;100.00;101424.28;3054195;19;19989;-53
2022/10/10 01:50:35;;;;;;;;;;;;;;;2.95;100.00;101419.00;3054301;19;19932;-52
2022/10/10 01:51:40;;;;;;;;;;;;;;;2.93;100.00;101413.75;3054139;19;19979;-53
2022/10/10 01:52:50;;;;;;;;;;;;;;;2.92;100.00;101416.41;3054276;19;19944;-51
2022/10/10 01:54:11;;;;;;;;;;;;;;;2.91;100.00;101412.91;3054280;19;20012;-50
2022/10/10 01:55:34;;;;;;;;;;;;;;;2.90;100.00;101419.94;3053931;19;20361;-52
2022/10/10 01:56:48;;;;;;;;;;;;;;;2.89;100.00;101420.00;3054698;19;19925;-54
2022/10/10 01:57:52;;;;;;;;;;;;;;;2.87;100.00;101417.38;3053813;19;20951;-50
2022/10/10 01:59:09;;;;;;;;;;;;;;;2.87;100.00;101422.66;3054725;19;19923;-54
2022/10/10 02:00:14;;;;;;;;;;;;;;;2.86;100.00;101417.41;3056429;19;19915;-51
2022/10/10 02:01:26;;;;;;;;;;;;;;;2.84;100.00;101425.31;3057492;19;19939;-53
2022/10/10 02:02:34;;;;;;;;;;;;;;;2.84;100.00;101419.19;3057206;19;19922;-51
2022/10/10 02:03:37;;;;;;;;;;;;;;;2.84;100.00;101424.47;3056638;19;19932;-50
2022/10/10 02:04:49;;;;;;;;;;;;;;;2.84;100.00;101424.47;3057124;19;19922;-51
2022/10/10 02:06:01;;;;;;;;;;;;;;;2.83;100.00;101417.44;3055982;19;19915;-51
2022/10/10 02:07:23;;;;;;;;;;;;;;;2.83;100.00;101412.16;3057605;19;19918;-52
2022/10/10 02:08:31;;;;;;;;;;;;;;;2.83;100.00;101417.44;3057203;19;20032;-51
2022/10/10 02:09:38;;;;;;;;;;;;;;;2.82;100.00;101421.84;3058269;19;19922;-55
2022/10/10 02:10:45;;;;;;;;;;;;;;;2.82;100.00;101420.97;3057896;19;19911;-52
2022/10/10 02:11:49;;;;;;;;;;;;;;;2.82;100.00;101418.31;3058257;19;19943;-52
2022/10/10 02:12:51;;;;;;;;;;;;;;;2.83;100.00;101417.44;3057800;19;19923;-52
2022/10/10 02:13:58;;;;;;;;;;;;;;;2.84;100.00;101425.31;3058268;19;19923;-49
2022/10/10 02:15:11;;;;;;;;;;;;;;;2.83;100.00;101412.16;3058088;19;19914;-50
2022/10/10 02:16:18;;;;;;;;;;;;;;;2.83;100.00;101420.06;3058246;19;19923;-52
2022/10/10 02:17:20;;;;;;;;;;;;;;;2.83;100.00;101414.81;3057999;19;19915;-56
2022/10/10 02:18:26;;;;;;;;;;;;;;;2.81;100.00;101413.94;3058307;19;19927;-50
2022/10/10 02:19:28;;;;;;;;;;;;;;;2.78;100.00;101400.81;3058157;19;19922;-49
2022/10/10 02:20:32;;;;;;;;;;;;;;;2.77;100.00;101407.00;3058123;19;19996;-54
2022/10/10 02:21:34;;;;;;;;;;;;;;;2.75;100.00;101403.50;3058026;19;20208;-51
2022/10/10 02:22:39;;;;;;;;;;;;;;;2.77;100.00;101402.59;3057765;19;19919;-53
2022/10/10 02:23:44;;;;;;;;;;;;;;;2.78;100.00;101398.16;3057985;19;19975;-52
2022/10/10 02:24:50;;;;;;;;;;;;;;;2.79;100.00;101397.28;3057615;19;19926;-53
2022/10/10 02:25:52;;;;;;;;;;;;;;;2.79;100.00;101384.09;3057095;19;19928;-50
2022/10/10 02:27:05;;;;;;;;;;;;;;;2.83;100.00;101389.31;3057880;19;19931;-52
2022/10/10 02:28:12;;;;;;;;;;;;;;;2.88;100.00;101394.53;3058026;19;20022;-50
2022/10/10 02:29:20;;;;;;;;;;;;;;;2.92;100.00;101396.19;3057751;19;19927;-49
2022/10/10 02:30:22;;;;;;;;;;;;;;;2.93;100.00;101392.69;3057992;19;19974;-53
2022/10/10 02:31:29;;;;;;;;;;;;;;;2.95;100.00;101396.16;3057904;19;19923;-52
2022/10/10 02:32:36;;;;;;;;;;;;;;;2.95;100.00;101390.88;3058675;19;20067;-53
2022/10/10 02:33:46;;;;;;;;;;;;;;;2.95;100.00;101393.53;3057541;19;19922;-53
2022/10/10 02:34:49;;;;;;;;;;;;;;;2.93;100.00;101387.41;3057543;19;19980;-53
2022/10/10 02:35:53;;;;;;;;;;;;;;;2.93;100.00;101395.31;3057650;19;19915;-52
2022/10/10 02:36:57;;;;;;;;;;;;;;;2.91;100.00;101389.19;3055826;19;19927;-52
2022/10/10 02:38:02;;;;;;;;;;;;;;;2.87;100.00;101383.13;3056652;19;19918;-51
2022/10/10 02:39:04;;;;;;;;;;;;;;;2.88;100.00;101383.97;3058175;19;19928;-54
2022/10/10 02:40:08;;;;;;;;;;;;;;;2.85;100.00;101382.25;3059312;19;19918;-52
2022/10/10 02:41:11;;;;;;;;;;;;;;;2.85;100.00;101384.03;3057800;19;19926;-52
2022/10/10 02:42:16;;;;;;;;;;;;;;;2.84;100.00;101387.56;3057573;19;20356;-54
2022/10/10 02:43:17;;;;;;;;;;;;;;;2.82;100.00;101387.56;3058074;19;19919;-54
2022/10/10 02:44:22;;;;;;;;;;;;;;;2.81;100.00;101384.94;3057744;19;19930;-54
2022/10/10 02:45:24;;;;;;;;;;;;;;;2.78;100.00;101388.50;3057571;19;20406;-53
2022/10/10 02:46:28;;;;;;;;;;;;;;;2.77;100.00;101392.06;3056215;19;19922;-51
2022/10/10 02:47:30;;;;;;;;;;;;;;;2.75;100.00;101379.78;3057516;19;19918;-54
2022/10/10 02:48:34;;;;;;;;;;;;;;;2.75;100.00;101377.16;3057221;19;20376;-52
2022/10/10 02:49:36;;;;;;;;;;;;;;;2.73;100.00;101377.19;3057713;19;19914;-52
2022/10/10 02:50:40;;;;;;;;;;;;;;;2.72;100.00;101379.84;3057459;19;19919;-55
2022/10/10 02:51:42;;;;;;;;;;;;;;;2.71;100.00;101388.63;3057650;19;19927;-50
2022/10/10 02:52:47;;;;;;;;;;;;;;;2.69;100.00;101377.22;3057298;19;19998;-52
2022/10/10 02:53:49;;;;;;;;;;;;;;;2.68;100.00;101384.28;3057343;19;19943;-54
2022/10/10 02:54:54;;;;;;;;;;;;;;;2.68;100.00;101375.50;3058568;19;19930;-51
2022/10/10 02:55:56;;;;;;;;;;;;;;;2.68;100.00;101386.03;3058148;19;20296;-53
2022/10/10 02:57:00;;;;;;;;;;;;;;;2.68;100.00;101375.50;3058637;19;19979;-49
2022/10/10 02:58:02;;;;;;;;;;;;;;;2.67;100.00;101389.56;3058471;19;19923;-51
2022/10/10 02:59:06;;;;;;;;;;;;;;;2.68;100.00;101386.03;3058221;19;19914;-52
2022/10/10 03:00:08;;;;;;;;;;;;;;;2.66;100.00;101383.41;3058297;19;19919;-53
2022/10/10 03:01:13;;;;;;;;;;;;;;;2.66;100.00;101383.41;3059593;19;20239;-52
2022/10/10 03:02:14;;;;;;;;;;;;;;;2.67;100.00;101384.28;3058058;19;20342;-51
2022/10/10 03:03:19;;;;;;;;;;;;;;;2.66;100.00;101377.28;3058291;19;19914;-51
2022/10/10 03:04:21;;;;;;;;;;;;;;;2.66;100.00;101377.28;3058209;19;19926;-51
2022/10/10 03:05:25;;;;;;;;;;;;;;;2.65;100.00;101381.69;3058140;19;19939;-54
2022/10/10 03:06:27;;;;;;;;;;;;;;;2.66;100.00;101379.91;3057302;19;19935;-55
2022/10/10 03:07:31;;;;;;;;;;;;;;;2.65;100.00;101376.44;3058241;19;19934;-52
2022/10/10 03:08:36;;;;;;;;;;;;;;;2.64;100.00;101379.09;3058132;19;19930;-50
2022/10/10 03:09:40;;;;;;;;;;;;;;;2.63;100.00;101385.25;3058070;19;20234;-52
2022/10/10 03:10:53;;;;;;;;;;;;;;;2.62;100.00;101386.13;3057180;19;19926;-52
2022/10/10 03:11:58;;;;;;;;;;;;;;;2.59;100.00;101386.19;3058480;19;19923;-52
2022/10/10 03:13:00;;;;;;;;;;;;;;;2.58;100.00;101384.44;3057952;19;19918;-52
2022/10/10 03:14:04;;;;;;;;;;;;;;;2.55;100.00;101382.69;3058104;19;20338;-50
2022/10/10 03:15:06;;;;;;;;;;;;;;;2.53;100.00;101392.41;3058011;19;19930;-51
2022/10/10 03:16:14;;;;;;;;;;;;;;;2.53;100.00;101390.66;3058262;19;19919;-52
2022/10/10 03:17:16;;;;;;;;;;;;;;;2.55;100.00;101387.97;3057731;19;19926;-51
2022/10/10 03:18:21;;;;;;;;;;;;;;;2.54;100.00;101384.47;3058063;19;20248;-53
2022/10/10 03:19:23;;;;;;;;;;;;;;;2.56;100.00;101383.56;3057716;19;19919;-52
2022/10/10 03:20:27;;;;;;;;;;;;;;;2.59;100.00;101386.19;3058009;19;20472;-52
2022/10/10 03:21:29;;;;;;;;;;;;;;;2.57;100.00;101383.56;3057947;19;19926;-52
2022/10/10 03:22:33;;;;;;;;;;;;;;;2.59;100.00;101380.91;3057750;19;19919;-52
2022/10/10 03:23:35;;;;;;;;;;;;;;;2.59;100.00;101375.63;3057811;19;20318;-54
2022/10/10 03:24:40;;;;;;;;;;;;;;;2.61;100.00;101382.63;3057932;19;19945;-52
2022/10/10 03:25:42;;;;;;;;;;;;;;;2.64;100.00;101384.34;3057717;19;19934;-53
2022/10/10 03:26:46;;;;;;;;;;;;;;;2.66;100.00;101378.16;3058781;19;19922;-54
2022/10/10 03:27:48;;;;;;;;;;;;;;;2.66;100.00;101378.16;3057749;19;19971;-52
2022/10/10 03:28:52;;;;;;;;;;;;;;;2.67;100.00;101371.97;3057984;19;19940;-54
2022/10/10 03:29:54;;;;;;;;;;;;;;;2.67;100.00;101379.88;3057489;19;20371;-55
2022/10/10 03:30:59;;;;;;;;;;;;;;;2.66;100.00;101377.28;3058160;19;20004;-52
2022/10/10 03:32:00;;;;;;;;;;;;;;;2.65;100.00;101380.81;3057614;19;20234;-51
2022/10/10 03:33:05;;;;;;;;;;;;;;;2.65;100.00;101380.81;3057687;19;20422;-53
2022/10/10 03:34:07;;;;;;;;;;;;;;;2.64;100.00;101387.00;3057635;19;20310;-52
2022/10/10 03:35:11;;;;;;;;;;;;;;;2.61;100.00;101387.03;3058235;19;20330;-51
2022/10/10 03:36:13;;;;;;;;;;;;;;;2.59;100.00;101376.50;3057478;19;19926;-54
2022/10/10 03:37:17;;;;;;;;;;;;;;;2.59;100.00;101380.91;3056860;19;19938;-53
2022/10/10 03:38:19;;;;;;;;;;;;;;;2.59;100.00;101383.53;3055880;19;19927;-53
2022/10/10 03:39:23;;;;;;;;;;;;;;;2.60;100.00;101386.16;3057689;19;19919;-51
2022/10/10 03:40:25;;;;;;;;;;;;;;;2.59;100.00;101380.91;3057577;19;19915;-51
2022/10/10 03:41:30;;;;;;;;;;;;;;;2.59;100.00;101370.38;3057702;19;19932;-51
2022/10/10 03:42:32;;;;;;;;;;;;;;;2.64;100.00;101373.81;3057626;19;19987;-53
2022/10/10 03:43:37;;;;;;;;;;;;;;;2.68;100.00;101372.84;3057505;19;19923;-54
2022/10/10 03:44:38;;;;;;;;;;;;;;;2.72;100.00;101366.66;3057539;19;20326;-51
2022/10/10 03:45:43;;;;;;;;;;;;;;;2.76;100.00;101366.59;3057267;19;19922;-54
2022/10/10 03:46:45;;;;;;;;;;;;;;;2.80;100.00;101370.91;3056970;19;19959;-54
2022/10/10 03:47:50;;;;;;;;;;;;;;;2.85;100.00;101369.06;3057155;19;19947;-53
2022/10/10 03:48:52;;;;;;;;;;;;;;;2.91;100.00;101362.81;3057312;19;19939;-52
2022/10/10 03:49:56;;;;;;;;;;;;;;;2.97;100.00;101362.75;3057192;19;19938;-51
2022/10/10 03:50:58;;;;;;;;;;;;;;;3.02;100.00;101366.16;3058291;19;19966;-54
2022/10/10 03:52:02;;;;;;;;;;;;;;;3.05;100.00;101368.75;3057128;19;20012;-50
2022/10/10 03:53:04;;;;;;;;;;;;;;;3.08;100.00;101360.78;3056138;19;19923;-53
2022/10/10 03:54:09;;;;;;;;;;;;;;;3.12;100.00;101351.94;3057560;19;19935;-50
2022/10/10 03:55:11;;;;;;;;;;;;;;;3.16;100.00;101353.59;3057009;19;19919;-54
2022/10/10 03:56:15;;;;;;;;;;;;;;;3.18;100.00;101357.09;3056876;19;19946;-53
2022/10/10 03:57:17;;;;;;;;;;;;;;;3.21;100.00;101348.25;3057306;19;19942;-53
2022/10/10 03:58:21;;;;;;;;;;;;;;;3.22;100.00;101350.88;3057127;19;19939;-55
2022/10/10 03:59:27;;;;;;;;;;;;;;;3.28;100.00;101349.00;3057355;19;19918;-51
2022/10/10 04:00:29;;;;;;;;;;;;;;;3.31;100.00;101351.59;3057144;19;20030;-52
2022/10/10 04:01:33;;;;;;;;;;;;;;;3.35;100.00;101351.53;3057018;19;19923;-51
2022/10/10 04:02:35;;;;;;;;;;;;;;;3.36;100.00;101349.75;3057133;19;19934;-55
2022/10/10 04:03:40;;;;;;;;;;;;;;;3.38;100.00;101354.09;3056787;19;20311;-51
2022/10/10 04:04:41;;;;;;;;;;;;;;;3.41;100.00;101353.16;3056982;19;20269;-52
2022/10/10 04:05:46;;;;;;;;;;;;;;;3.41;100.00;101348.75;3056506;19;20266;-54
2022/10/10 04:06:48;;;;;;;;;;;;;;;3.41;100.00;101347.91;3056995;19;19918;-55
2022/10/10 04:07:52;;;;;;;;;;;;;;;3.39;100.00;101345.28;3057051;19;19915;-51
2022/10/10 04:08:54;;;;;;;;;;;;;;;3.41;100.00;101345.25;3057088;19;20338;-52
2022/10/10 04:09:58;;;;;;;;;;;;;;;3.41;100.00;101342.63;3056909;19;20244;-53
2022/10/10 04:11:00;;;;;;;;;;;;;;;3.41;100.00;101354.03;3057139;19;19919;-53
2022/10/10 04:12:04;;;;;;;;;;;;;;;3.42;100.00;101354.91;3056836;19;19943;-52
2022/10/10 04:13:06;;;;;;;;;;;;;;;3.41;100.00;101358.44;3056606;19;20322;-52
2022/10/10 04:14:11;;;;;;;;;;;;;;;3.40;100.00;101359.34;3056968;19;19996;-54
2022/10/10 04:15:12;;;;;;;;;;;;;;;3.39;100.00;101365.50;3058611;19;19923;-52
2022/10/10 04:16:17;;;;;;;;;;;;;;;3.38;100.00;101358.53;3058013;19;20346;-52
2022/10/10 04:17:19;;;;;;;;;;;;;;;3.36;100.00;101355.03;3056403;19;19926;-52
2022/10/10 04:18:23;;;;;;;;;;;;;;;3.34;100.00;101362.09;3057261;19;19927;-55
2022/10/10 04:19:25;;;;;;;;;;;;;;;3.33;100.00;101355.09;3056551;19;19918;-52
2022/10/10 04:20:29;;;;;;;;;;;;;;;3.31;100.00;101360.38;3056749;19;19915;-51
2022/10/10 04:21:31;;;;;;;;;;;;;;;3.30;100.00;101365.69;3056504;19;20372;-52
2022/10/10 04:22:35;;;;;;;;;;;;;;;3.26;100.00;101360.47;3055515;19;19980;-54
2022/10/10 04:23:39;;;;;;;;;;;;;;;3.24;100.00;101357.00;3054315;19;19914;-51
2022/10/10 04:24:44;;;;;;;;;;;;;;;3.22;100.00;101364.06;3055102;19;20216;-55
2022/10/10 04:25:46;;;;;;;;;;;;;;;3.14;100.00;101360.66;3055976;19;20591;-53
2022/10/10 04:26:51;;;;;;;;;;;;;;;3.20;100.00;101365.84;3055036;19;19922;-49
2022/10/10 04:27:53;;;;;;;;;;;;;;;3.19;100.00;101356.19;3053934;19;19951;-52
2022/10/10 04:29:04;;;;;;;;;;;;;;;3.18;100.00;101357.09;3055415;19;19915;-54
2022/10/10 04:30:06;;;;;;;;;;;;;;;3.18;100.00;101357.09;3054933;19;20269;-53
2022/10/10 04:31:10;;;;;;;;;;;;;;;3.17;100.00;101365.91;3055556;19;19922;-51
2022/10/10 04:32:12;;;;;;;;;;;;;;;3.15;100.00;101357.13;3055132;19;20644;-50
2022/10/10 04:33:17;;;;;;;;;;;;;;;3.16;100.00;101358.88;3055228;19;19914;-55
2022/10/10 04:34:19;;;;;;;;;;;;;;;3.17;100.00;101355.34;3054641;19;20318;-54
2022/10/10 04:35:23;;;;;;;;;;;;;;;3.17;100.00;101365.91;3055255;19;19927;-51
2022/10/10 04:36:25;;;;;;;;;;;;;;;3.18;100.00;101362.38;3055148;19;19922;-54
2022/10/10 04:37:29;;;;;;;;;;;;;;;3.16;100.00;101353.59;3054806;19;19951;-51
2022/10/10 04:38:31;;;;;;;;;;;;;;;3.16;100.00;101358.88;3056039;19;19919;-50
2022/10/10 04:39:36;;;;;;;;;;;;;;;3.14;100.00;101358.03;3056455;19;19926;-52
2022/10/10 04:40:37;;;;;;;;;;;;;;;3.14;100.00;101355.41;3056411;19;19922;-51
2022/10/10 04:41:42;;;;;;;;;;;;;;;3.15;100.00;101362.41;3056275;19;19926;-52
2022/10/10 04:42:44;;;;;;;;;;;;;;;3.16;100.00;101366.78;3054513;19;19919;-52
2022/10/10 04:43:48;;;;;;;;;;;;;;;3.16;100.00;101358.88;3055317;19;19922;-50
2022/10/10 04:44:50;;;;;;;;;;;;;;;3.10;100.00;101337.91;3056377;19;19914;-52
2022/10/10 04:45:57;;;;;;;;;;;;;;;3.18;100.00;101351.81;3056430;19;19923;-52
2022/10/10 04:46:59;;;;;;;;;;;;;;;3.18;100.00;101357.09;3056373;19;19930;-53
2022/10/10 04:48:04;;;;;;;;;;;;;;;3.17;100.00;101355.34;3055770;19;19923;-53
2022/10/10 04:49:06;;;;;;;;;;;;;;;3.17;100.00;101354.47;3054908;19;19990;-52
2022/10/10 04:50:10;;;;;;;;;;;;;;;3.17;100.00;101349.19;3055006;19;19955;-51
2022/10/10 04:51:12;;;;;;;;;;;;;;;3.17;100.00;101344.81;3057606;19;19946;-52
2022/10/10 04:52:16;;;;;;;;;;;;;;;3.18;100.00;101346.53;3056102;19;19919;-50
2022/10/10 04:53:18;;;;;;;;;;;;;;;3.20;100.00;101344.75;3055005;19;20459;-53
2022/10/10 04:54:22;;;;;;;;;;;;;;;3.21;100.00;101351.78;3055677;19;19939;-51
2022/10/10 04:55:24;;;;;;;;;;;;;;;3.24;100.00;101346.44;3056222;19;19923;-52
2022/10/10 04:56:29;;;;;;;;;;;;;;;3.25;100.00;101353.47;3056100;19;19932;-52
2022/10/10 04:57:31;;;;;;;;;;;;;;;3.28;100.00;101349.00;3055215;19;20021;-52
2022/10/10 04:58:35;;;;;;;;;;;;;;;3.29;100.00;101348.13;3055212;19;20535;-50
2022/10/10 04:59:37;;;;;;;;;;;;;;;3.32;100.00;101348.06;3056054;19;19935;-52
2022/10/10 05:00:41;;;;;;;;;;;;;;;3.33;100.00;101349.81;3056973;19;19947;-52
2022/10/10 05:01:43;;;;;;;;;;;;;;;3.33;100.00;101350.69;3056151;19;19930;-52
2022/10/10 05:02:47;;;;;;;;;;;;;;;3.35;100.00;101348.03;3056133;19;20314;-53
2022/10/10 05:03:50;;;;;;;;;;;;;;;3.34;100.00;101349.78;3055763;19;20261;-54
2022/10/10 05:04:54;;;;;;;;;;;;;;;3.35;100.00;101346.25;3056046;19;19942;-50
2022/10/10 05:05:56;;;;;;;;;;;;;;;3.36;100.00;101345.34;2950389;19;19950;-52
2022/10/10 05:07:01;;;;;;;;;;;;;;;3.38;100.00;101345.34;3053580;19;19922;-52
2022/10/10 05:08:03;;;;;;;;;;;;;;;3.38;100.00;101345.34;3057190;19;19943;-53
2022/10/10 05:09:07;;;;;;;;;;;;;;;3.43;100.00;101348.75;3055437;19;19952;-53
2022/10/10 05:10:09;;;;;;;;;;;;;;;3.45;100.00;101357.50;3055339;19;19919;-52
2022/10/10 05:11:13;;;;;;;;;;;;;;;3.46;100.00;101349.56;3056126;19;19994;-52
2022/10/10 05:12:15;;;;;;;;;;;;;;;3.49;100.00;101351.28;3056343;19;19944;-53
2022/10/10 05:13:20;;;;;;;;;;;;;;;3.51;100.00;101354.72;3055905;19;19922;-55
2022/10/10 05:14:21;;;;;;;;;;;;;;;3.52;100.00;101343.28;3055966;19;20338;-52
2022/10/10 05:15:27;;;;;;;;;;;;;;;3.52;100.00;101345.91;3055937;19;19935;-53
2022/10/10 05:16:28;;;;;;;;;;;;;;;3.54;100.00;101338.84;3057094;19;19918;-53
2022/10/10 05:17:33;;;;;;;;;;;;;;;3.56;100.00;101342.34;3056763;19;19939;-54
2022/10/10 05:18:36;;;;;;;;;;;;;;;3.57;100.00;101333.53;3055310;19;19919;-54
2022/10/10 05:19:40;;;;;;;;;;;;;;;3.56;100.00;101334.41;3056678;19;20292;-52
2022/10/10 05:20:42;;;;;;;;;;;;;;;3.55;100.00;101335.31;3056199;19;19919;-52
2022/10/10 05:21:47;;;;;;;;;;;;;;;3.56;100.00;101321.22;3055661;19;19915;-53
2022/10/10 05:22:49;;;;;;;;;;;;;;;3.56;100.00;101316.81;3056102;19;19927;-54
2022/10/10 05:23:54;;;;;;;;;;;;;;;3.57;100.00;101317.69;3055752;19;19923;-52
2022/10/10 05:24:57;;;;;;;;;;;;;;;3.59;100.00;101307.97;3055964;19;19940;-54
2022/10/10 05:26:02;;;;;;;;;;;;;;;3.60;100.00;101312.34;3055960;19;19947;-52
2022/10/10 05:27:04;;;;;;;;;;;;;;;3.64;100.00;101314.00;3057039;19;19926;-51
2022/10/10 05:28:08;;;;;;;;;;;;;;;3.69;100.00;101314.81;3056553;19;19922;-51
2022/10/10 05:29:10;;;;;;;;;;;;;;;3.72;100.00;101317.38;3057645;19;20352;-53
2022/10/10 05:30:15;;;;;;;;;;;;;;;3.77;100.00;101318.16;3055228;19;20249;-49
2022/10/10 05:31:49;;;;;;;;;;;;;;;3.83;100.00;101320.69;3070724;19;19907;-51